createdAt,value
2023-01-18T00:01:06.533Z,58.33
2023-01-18T00:03:38.423Z,58.14
2023-01-18T00:06:10.049Z,58.25
2023-01-18T00:08:41.293Z,58.18
2023-01-18T00:11:15.534Z,58.27
2023-01-18T00:13:46.593Z,58.48
2023-01-18T00:16:18.788Z,58.50
2023-01-18T00:18:54.987Z,58.45
2023-01-18T00:21:24.547Z,58.48
2023-01-18T00:23:54.475Z,58.19
2023-01-18T00:26:24.904Z,58.04
2023-01-18T00:28:53.903Z,58.27
2023-01-18T00:31:23.092Z,58.26
2023-01-18T00:33:52.372Z,58.11
2023-01-18T00:36:22.199Z,58.87
2023-01-18T00:38:52.992Z,58.84
2023-01-18T00:41:24.343Z,59.01
2023-01-18T00:43:53.355Z,58.85
2023-01-18T00:46:23.672Z,58.99
2023-01-18T00:48:54.768Z,59.23
2023-01-18T00:51:26.833Z,59.09
2023-01-18T00:53:55.759Z,59.18
2023-01-18T00:56:26.018Z,58.82
2023-01-18T00:58:59.104Z,59.37
2023-01-18T01:01:30.114Z,59.47
2023-01-18T01:04:16.435Z,59.73
2023-01-18T01:06:46.739Z,60.21
2023-01-18T01:09:19.534Z,59.94
2023-01-18T01:12:07.987Z,59.47
2023-01-18T01:14:56.524Z,59.26
2023-01-18T01:17:45.235Z,59.54
2023-01-18T01:20:33.937Z,59.17
2023-01-18T01:23:28.407Z,59.42
2023-01-18T01:26:11.218Z,59.58
2023-01-18T01:28:43.675Z,59.87
2023-01-18T01:31:14.696Z,59.13
2023-01-18T01:33:46.326Z,59.74
2023-01-18T01:36:22.387Z,59.15
2023-01-18T01:38:51.334Z,59.18
2023-01-18T01:41:25.782Z,59.37
2023-01-18T01:43:58.465Z,58.99
2023-01-18T01:46:36.984Z,59.35
2023-01-18T01:49:11.558Z,59.16
2023-01-18T01:51:46.460Z,59.35
2023-01-18T01:54:19.952Z,58.70
2023-01-18T01:56:54.817Z,58.95
2023-01-18T01:59:26.024Z,58.69
2023-01-18T02:01:55.149Z,59.32
2023-01-18T02:04:25.297Z,58.98
2023-01-18T02:06:54.424Z,58.49
2023-01-18T02:09:25.042Z,58.58
2023-01-18T02:11:55.976Z,59.12
2023-01-18T02:14:29.103Z,58.95
2023-01-18T02:17:09.280Z,58.14
2023-01-18T02:20:04.927Z,58.69
2023-01-18T02:22:56.606Z,58.60
2023-01-18T02:25:51.551Z,58.33
2023-01-18T02:28:28.524Z,58.22
2023-01-18T02:31:04.703Z,58.22
2023-01-18T02:33:40.389Z,58.22
2023-01-18T02:36:09.546Z,58.56
2023-01-18T02:38:44.640Z,58.79
2023-01-18T02:41:20.601Z,58.40
2023-01-18T02:44:13.880Z,59.04
2023-01-18T02:46:45.059Z,58.66
2023-01-18T02:49:22.052Z,58.62
2023-01-18T02:51:52.170Z,58.67
2023-01-18T02:54:24.827Z,59.09
2023-01-18T02:56:55.692Z,58.77
2023-01-18T02:59:36.998Z,59.01
2023-01-18T03:02:12.990Z,59.27
2023-01-18T03:04:45.343Z,59.31
2023-01-18T03:07:22.411Z,59.28
2023-01-18T03:09:54.489Z,59.35
2023-01-18T03:12:28.856Z,59.73
2023-01-18T03:15:09.596Z,59.65
2023-01-18T03:17:44.184Z,59.71
2023-01-18T03:20:18.863Z,59.33
2023-01-18T03:23:10.428Z,59.07
2023-01-18T03:25:43.091Z,59.73
2023-01-18T03:28:34.140Z,60.79
2023-01-18T03:31:26.375Z,60.28
2023-01-18T03:34:50.617Z,61.17
2023-01-18T03:45:17.287Z,62.27
2023-01-18T03:47:51.429Z,62.61
2023-01-18T03:50:21.824Z,62.59
2023-01-18T03:52:59.289Z,62.65
2023-01-18T03:55:40.781Z,62.48
2023-01-18T03:58:12.655Z,62.31
2023-01-18T04:00:42.624Z,62.94
2023-01-18T04:03:16.806Z,62.98
2023-01-18T04:05:45.926Z,62.78
2023-01-18T04:12:04.055Z,62.92
2023-01-18T04:19:33.830Z,63.08
2023-01-18T04:22:09.928Z,62.99
2023-01-18T04:24:41.684Z,63.57
2023-01-18T04:27:18.525Z,63.54
2023-01-18T04:29:48.431Z,63.78
2023-01-18T04:32:20.118Z,63.81
2023-01-18T04:34:51.477Z,64.09
2023-01-18T04:37:20.330Z,64.27
2023-01-18T04:39:50.279Z,64.51
2023-01-18T04:42:20.158Z,64.61
2023-01-18T04:44:50.049Z,64.89
2023-01-18T04:47:20.114Z,64.71
2023-01-18T04:49:50.583Z,65.15
2023-01-18T04:52:20.439Z,66.23
2023-01-18T04:54:49.337Z,66.06
2023-01-18T04:57:18.261Z,66.39
2023-01-18T05:03:59.513Z,66.00
2023-01-18T05:06:29.878Z,65.75
2023-01-18T05:08:58.776Z,65.52
2023-01-18T05:11:28.946Z,66.45
2023-01-18T05:13:58.846Z,66.20
2023-01-18T05:16:28.144Z,66.34
2023-01-18T05:18:57.304Z,66.50
2023-01-18T05:21:26.118Z,65.78
2023-01-18T05:23:56.529Z,65.86
2023-01-18T05:26:26.085Z,66.38
2023-01-18T05:28:58.804Z,65.64
2023-01-18T05:31:27.855Z,66.37
2023-01-18T05:33:58.143Z,66.70
2023-01-18T05:36:26.897Z,66.93
2023-01-18T05:38:57.542Z,67.04
2023-01-18T05:41:26.500Z,67.03
2023-01-18T05:43:55.337Z,67.27
2023-01-18T05:46:24.491Z,67.81
2023-01-18T05:48:57.104Z,67.21
2023-01-18T05:51:26.859Z,66.98
2023-01-18T05:53:57.163Z,66.91
2023-01-18T05:56:26.109Z,66.80
2023-01-18T05:58:55.091Z,66.88
2023-01-18T06:01:25.075Z,67.32
2023-01-18T06:03:54.061Z,67.21
2023-01-18T06:06:22.995Z,67.07
2023-01-18T06:08:54.280Z,66.72
2023-01-18T06:11:25.747Z,67.04
2023-01-18T06:13:56.652Z,66.92
2023-01-18T06:16:25.939Z,67.46
2023-01-18T06:18:55.785Z,68.06
2023-01-18T06:21:24.657Z,67.77
2023-01-18T06:23:53.581Z,67.42
2023-01-18T06:26:24.112Z,67.27
2023-01-18T06:28:54.725Z,67.74
2023-01-18T06:31:23.601Z,67.49
2023-01-18T06:33:53.538Z,67.70
2023-01-18T06:36:22.350Z,67.44
2023-01-18T06:38:52.351Z,66.89
2023-01-18T06:41:22.184Z,66.85
2023-01-18T06:43:53.747Z,67.06
2023-01-18T06:46:27.502Z,67.50
2023-01-18T06:48:57.636Z,68.56
2023-01-18T06:51:28.651Z,68.78
2023-01-18T06:53:58.656Z,68.95
2023-01-18T06:56:38.774Z,68.52
2023-01-18T06:59:10.678Z,69.01
2023-01-18T07:01:39.698Z,68.78
2023-01-18T07:04:09.944Z,69.67
2023-01-18T07:06:45.292Z,69.20
2023-01-18T07:09:16.301Z,69.51
2023-01-18T07:11:56.432Z,68.70
2023-01-18T07:14:27.813Z,69.26
2023-01-18T07:16:58.680Z,68.91
2023-01-18T07:19:27.847Z,69.26
2023-01-18T07:22:02.991Z,69.24
2023-01-18T07:24:31.968Z,69.94
2023-01-18T07:27:03.534Z,69.65
2023-01-18T07:29:34.939Z,69.22
2023-01-18T07:32:05.187Z,69.64
2023-01-18T07:34:36.316Z,69.58
2023-01-18T07:37:10.326Z,69.38
2023-01-18T07:39:40.260Z,69.51
2023-01-18T07:42:10.084Z,69.09
2023-01-18T07:44:41.438Z,68.81
2023-01-18T07:47:11.367Z,69.07
2023-01-18T07:49:41.577Z,69.09
2023-01-18T07:52:11.367Z,69.54
2023-01-18T07:54:40.654Z,69.96
2023-01-18T07:57:10.639Z,69.71
2023-01-18T07:59:43.018Z,70.18
2023-01-18T08:02:14.664Z,70.00
2023-01-18T08:04:45.902Z,69.57
2023-01-18T08:07:15.968Z,70.58
2023-01-18T08:09:46.169Z,70.42
2023-01-18T08:12:18.943Z,70.99
2023-01-18T08:14:50.395Z,70.64
2023-01-18T08:17:20.498Z,68.51
2023-01-18T08:19:52.741Z,65.70
2023-01-18T08:22:21.685Z,63.07
2023-01-18T08:24:51.569Z,61.54
2023-01-18T08:27:22.838Z,59.96
2023-01-18T08:29:55.356Z,58.86
2023-01-18T08:32:24.952Z,56.79
2023-01-18T08:34:54.817Z,56.07
2023-01-18T08:37:25.928Z,55.74
2023-01-18T08:39:56.130Z,55.79
2023-01-18T08:42:26.110Z,54.73
2023-01-18T08:44:56.742Z,55.04
2023-01-18T08:47:32.772Z,54.95
2023-01-18T08:50:02.791Z,54.80
2023-01-18T08:52:36.762Z,54.75
2023-01-18T08:55:08.946Z,54.51
2023-01-18T08:57:40.405Z,54.24
2023-01-18T09:00:13.372Z,54.05
2023-01-18T09:02:42.591Z,53.77
2023-01-18T09:05:12.727Z,53.68
2023-01-18T09:07:41.899Z,53.11
2023-01-18T09:10:12.422Z,53.65
2023-01-18T09:12:41.653Z,53.06
2023-01-18T09:15:12.295Z,53.00
2023-01-18T09:17:41.335Z,53.18
2023-01-18T09:20:12.334Z,52.77
2023-01-18T09:22:43.116Z,51.71
2023-01-18T09:25:12.270Z,52.18
2023-01-18T09:27:41.136Z,51.29
2023-01-18T09:30:12.988Z,50.90
2023-01-18T09:32:42.969Z,50.51
2023-01-18T09:35:12.091Z,50.56
2023-01-18T09:37:40.946Z,50.35
2023-01-18T09:40:17.328Z,49.42
2023-01-18T09:42:48.871Z,49.31
2023-01-18T09:45:31.407Z,48.10
2023-01-18T09:48:04.207Z,48.38
2023-01-18T09:50:43.165Z,49.36
2023-01-18T09:53:25.124Z,49.11
2023-01-18T09:55:58.357Z,48.25
2023-01-18T09:58:42.902Z,47.54
2023-01-18T10:01:17.722Z,47.41
2023-01-18T10:03:51.986Z,46.92
2023-01-18T10:06:25.793Z,47.50
2023-01-18T10:09:01.354Z,46.57
2023-01-18T10:11:37.020Z,47.05
2023-01-18T10:14:10.855Z,47.14
2023-01-18T10:16:41.954Z,47.74
2023-01-18T10:19:17.190Z,48.01
2023-01-18T10:21:54.314Z,47.92
2023-01-18T10:24:32.302Z,48.44
2023-01-18T10:27:18.144Z,47.50
2023-01-18T10:30:01.815Z,48.45
2023-01-18T10:32:36.537Z,47.70
2023-01-18T10:35:16.688Z,47.40
2023-01-18T10:37:46.906Z,47.86
2023-01-18T10:40:17.033Z,47.29
2023-01-18T10:42:47.659Z,46.84
2023-01-18T10:45:21.881Z,46.91
2023-01-18T10:47:53.455Z,46.04
2023-01-18T10:50:24.872Z,45.20
2023-01-18T10:52:53.875Z,45.76
2023-01-18T10:55:23.175Z,45.06
2023-01-18T10:57:54.442Z,44.66
2023-01-18T11:00:27.896Z,44.37
2023-01-18T11:03:00.302Z,44.04
2023-01-18T11:05:32.434Z,44.27
2023-01-18T11:08:22.124Z,44.09
2023-01-18T11:11:00.898Z,43.12
2023-01-18T11:13:34.168Z,44.24
2023-01-18T11:16:15.916Z,43.75
2023-01-18T11:19:03.948Z,43.94
2023-01-18T11:21:46.269Z,43.65
2023-01-18T11:24:18.868Z,43.31
2023-01-18T11:27:02.429Z,42.78
2023-01-18T11:29:34.628Z,43.58
2023-01-18T11:32:05.541Z,43.93
2023-01-18T11:34:38.525Z,44.16
2023-01-18T11:37:31.115Z,43.52
2023-01-18T11:40:00.715Z,44.27
2023-01-18T11:42:32.247Z,43.91
2023-01-18T11:45:22.629Z,44.34
2023-01-18T11:47:59.249Z,44.49
2023-01-18T11:50:36.138Z,44.65
2023-01-18T11:53:15.394Z,44.34
2023-01-18T11:55:56.380Z,45.41
2023-01-18T12:03:45.024Z,45.37
2023-01-18T12:06:27.481Z,44.38
2023-01-18T12:09:14.766Z,43.48
2023-01-18T12:12:17.358Z,43.65
2023-01-18T12:15:16.979Z,42.93
2023-01-18T12:18:12.489Z,43.05
2023-01-18T12:20:54.026Z,42.60
2023-01-18T12:23:46.672Z,43.05
2023-01-18T12:26:32.260Z,42.77
2023-01-18T12:29:18.060Z,43.37
2023-01-18T12:31:58.797Z,43.87
2023-01-18T12:34:36.293Z,44.04
2023-01-18T12:37:23.423Z,43.56
2023-01-18T12:40:06.679Z,43.59
2023-01-18T12:42:47.931Z,43.09
2023-01-18T12:45:29.074Z,42.43
2023-01-18T12:48:11.225Z,43.25
2023-01-18T12:50:43.753Z,43.39
2023-01-18T12:53:16.709Z,43.17
2023-01-18T12:55:51.418Z,43.24
2023-01-18T12:58:23.932Z,42.79
2023-01-18T13:00:59.943Z,42.34
2023-01-18T13:03:36.905Z,41.88
2023-01-18T13:06:06.096Z,41.60
2023-01-18T13:08:44.437Z,42.24
2023-01-18T13:11:18.705Z,42.01
2023-01-18T13:13:51.983Z,41.59
2023-01-18T13:16:38.038Z,41.59
2023-01-18T13:19:10.702Z,41.37
2023-01-18T13:21:49.895Z,40.74
2023-01-18T13:24:31.381Z,40.46
2023-01-18T13:27:13.530Z,41.23
2023-01-18T13:29:44.087Z,40.10
2023-01-18T13:32:30.542Z,40.43
2023-01-18T13:35:19.013Z,40.51
2023-01-18T13:46:05.963Z,38.78
2023-01-18T13:48:47.576Z,38.92
2023-01-18T13:51:52.289Z,39.29
2023-01-18T13:55:05.609Z,37.67
2023-01-18T13:57:36.774Z,39.25
2023-01-18T14:00:07.742Z,38.20
2023-01-18T14:02:43.657Z,38.58
2023-01-18T14:05:25.072Z,38.16
2023-01-18T14:07:57.690Z,39.32
2023-01-18T14:10:31.974Z,39.31
2023-01-18T14:13:03.147Z,37.34
2023-01-18T14:15:48.538Z,35.70
2023-01-18T14:18:25.203Z,34.89
2023-01-18T14:21:11.333Z,35.13
2023-01-18T14:24:02.445Z,35.00
2023-01-18T14:26:34.715Z,33.98
2023-01-18T14:29:07.395Z,33.46
2023-01-18T14:31:40.326Z,33.43
2023-01-18T14:34:38.188Z,33.32
2023-01-18T14:37:29.042Z,33.26
2023-01-18T14:40:15.359Z,33.49
2023-01-18T14:42:50.458Z,34.34
2023-01-18T14:45:27.636Z,34.71
2023-01-18T14:47:57.654Z,34.10
2023-01-18T14:50:33.613Z,35.31
2023-01-18T14:53:03.223Z,36.03
2023-01-18T14:55:33.979Z,35.82
2023-01-18T14:58:05.895Z,34.03
2023-01-18T15:00:34.943Z,34.04
2023-01-18T15:03:03.909Z,33.15
2023-01-18T15:05:34.406Z,33.45
2023-01-18T15:08:03.412Z,33.88
2023-01-18T15:10:35.641Z,34.07
2023-01-18T15:13:06.391Z,35.11
2023-01-18T15:15:41.068Z,34.43
2023-01-18T15:18:17.194Z,35.68
2023-01-18T15:20:57.141Z,35.57
2023-01-18T15:23:28.237Z,36.02
2023-01-18T15:25:59.135Z,36.16
2023-01-18T15:28:34.391Z,36.60
2023-01-18T15:31:13.144Z,36.84
2023-01-18T15:33:42.558Z,36.87
2023-01-18T15:36:14.440Z,36.63
2023-01-18T15:38:44.093Z,36.84
2023-01-18T15:41:16.101Z,36.96
2023-01-18T15:43:49.112Z,38.02
2023-01-18T15:46:19.511Z,37.67
2023-01-18T15:48:51.815Z,38.53
2023-01-18T15:51:42.897Z,36.95
2023-01-18T15:54:19.339Z,37.10
2023-01-18T15:56:49.592Z,37.31
2023-01-18T15:59:23.302Z,37.85
2023-01-18T16:02:19.391Z,37.62
2023-01-18T16:04:48.602Z,37.82
2023-01-18T16:07:43.399Z,38.04
2023-01-18T16:10:30.666Z,38.23
2023-01-18T16:13:33.657Z,38.48
2023-01-18T16:16:14.503Z,38.21
2023-01-18T16:18:46.517Z,38.35
2023-01-18T16:21:22.406Z,37.78
2023-01-18T16:23:54.229Z,38.58
2023-01-18T16:26:29.042Z,38.42
2023-01-18T16:29:07.598Z,38.21
2023-01-18T16:31:37.483Z,38.99
2023-01-18T16:34:20.495Z,38.97
2023-01-18T16:36:49.941Z,40.13
2023-01-18T16:39:20.692Z,39.20
2023-01-18T16:41:54.915Z,39.79
2023-01-18T16:44:24.063Z,39.97
2023-01-18T16:46:54.066Z,39.85
2023-01-18T16:49:23.009Z,40.08
2023-01-18T16:51:51.940Z,40.74
2023-01-18T16:54:23.681Z,39.78
2023-01-18T16:56:52.691Z,40.26
2023-01-18T16:59:23.536Z,40.36
2023-01-18T17:01:53.158Z,40.13
2023-01-18T17:04:22.130Z,40.54
2023-01-18T17:06:51.102Z,40.07
2023-01-18T17:09:28.108Z,40.57
2023-01-18T17:12:00.032Z,40.86
2023-01-18T17:14:29.054Z,40.63
2023-01-18T17:16:58.048Z,40.83
2023-01-18T17:19:29.205Z,40.92
2023-01-18T17:21:59.140Z,41.12
2023-01-18T17:24:32.929Z,41.26
2023-01-18T17:27:10.477Z,41.74
2023-01-18T17:29:39.683Z,41.93
2023-01-18T17:32:08.629Z,41.92
2023-01-18T17:34:37.677Z,43.03
2023-01-18T17:37:10.999Z,42.43
2023-01-18T17:39:49.799Z,43.14
2023-01-18T17:42:30.233Z,42.60
2023-01-18T17:45:04.497Z,42.83
2023-01-18T17:47:39.129Z,41.96
2023-01-18T17:50:11.661Z,43.20
2023-01-18T17:52:43.781Z,42.58
2023-01-18T17:55:17.900Z,42.98
2023-01-18T17:57:50.097Z,43.28
2023-01-18T18:00:21.934Z,42.07
2023-01-18T18:02:57.237Z,43.04
2023-01-18T18:05:26.897Z,42.65
2023-01-18T18:07:57.019Z,42.80
2023-01-18T18:10:29.244Z,43.09
2023-01-18T18:12:59.977Z,42.74
2023-01-18T18:15:30.357Z,43.12
2023-01-18T18:18:01.042Z,43.41
2023-01-18T18:20:32.330Z,42.99
2023-01-18T18:23:02.354Z,43.68
2023-01-18T18:25:34.823Z,42.50
2023-01-18T18:28:05.009Z,43.23
2023-01-18T18:30:35.927Z,43.32
2023-01-18T18:33:04.888Z,43.47
2023-01-18T18:35:35.012Z,43.78
2023-01-18T18:38:03.963Z,43.14
2023-01-18T18:40:35.436Z,43.57
2023-01-18T18:43:05.554Z,43.72
2023-01-18T18:45:36.018Z,44.38
2023-01-18T18:48:06.530Z,44.23
2023-01-18T18:50:35.739Z,43.68
2023-01-18T18:53:09.657Z,44.61
2023-01-18T18:55:41.293Z,43.96
2023-01-18T18:58:17.459Z,45.12
2023-01-18T19:00:47.601Z,45.54
2023-01-18T19:03:17.676Z,45.38
2023-01-18T19:05:46.840Z,46.03
2023-01-18T19:08:15.699Z,46.04
2023-01-18T19:10:50.034Z,45.88
2023-01-18T19:13:21.119Z,46.45
2023-01-18T19:15:53.337Z,46.55
2023-01-18T19:18:30.595Z,47.07
2023-01-18T19:21:01.861Z,46.68
2023-01-18T19:23:30.841Z,46.81
2023-01-18T19:26:02.169Z,46.38
2023-01-18T19:28:31.141Z,46.16
2023-01-18T19:31:07.070Z,46.88
2023-01-18T19:33:37.014Z,46.51
2023-01-18T19:36:13.246Z,46.31
2023-01-18T19:38:46.445Z,45.72
2023-01-18T19:41:19.225Z,45.98
2023-01-18T19:43:51.332Z,46.47
2023-01-18T19:46:21.374Z,45.78
2023-01-18T19:48:51.505Z,45.79
2023-01-18T19:51:22.869Z,46.34
2023-01-18T19:53:53.681Z,46.54
2023-01-18T19:56:28.287Z,46.70
2023-01-18T19:58:57.499Z,47.26
2023-01-18T20:01:36.260Z,47.57
2023-01-18T20:04:07.069Z,47.50
2023-01-18T20:06:39.803Z,47.23
2023-01-18T20:09:18.961Z,47.41
2023-01-18T20:11:52.133Z,47.15
2023-01-18T20:14:26.266Z,47.48
2023-01-18T20:17:00.698Z,47.90
2023-01-18T20:19:30.717Z,46.33
2023-01-18T20:22:04.847Z,46.99
2023-01-18T20:24:34.923Z,47.34
2023-01-18T20:27:15.800Z,47.62
2023-01-18T20:29:46.716Z,47.25
2023-01-18T20:32:18.504Z,47.07
2023-01-18T20:34:48.911Z,46.55
2023-01-18T20:37:18.282Z,46.68
2023-01-18T20:39:50.426Z,46.39
2023-01-18T20:42:20.845Z,46.21
2023-01-18T20:44:54.000Z,47.05
2023-01-18T20:47:23.861Z,47.14
2023-01-18T20:49:53.855Z,46.96
2023-01-18T20:52:26.967Z,46.74
2023-01-18T20:54:57.262Z,46.45
2023-01-18T20:57:31.723Z,46.30
2023-01-18T21:00:01.872Z,46.52
2023-01-18T21:02:32.901Z,46.55
2023-01-18T21:05:02.016Z,47.02
2023-01-18T21:07:32.953Z,47.99
2023-01-18T21:10:01.944Z,47.32
2023-01-18T21:12:36.278Z,48.01
2023-01-18T21:15:09.329Z,48.45
2023-01-18T21:17:39.914Z,48.36
2023-01-18T21:20:10.127Z,48.63
2023-01-18T21:22:41.422Z,48.17
2023-01-18T21:25:11.824Z,48.54
2023-01-18T21:27:44.428Z,48.12
2023-01-18T21:30:15.736Z,48.15
2023-01-18T21:32:45.183Z,47.81
2023-01-18T21:35:15.507Z,48.11
2023-01-18T21:37:47.186Z,47.57
2023-01-18T21:40:17.331Z,47.89
2023-01-18T21:43:13.760Z,48.64
2023-01-18T21:45:58.498Z,48.22
2023-01-18T21:48:30.725Z,48.61
2023-01-18T21:51:19.399Z,49.01
2023-01-18T21:54:06.642Z,49.69
2023-01-18T21:56:38.857Z,49.92
2023-01-18T21:59:12.147Z,50.18
2023-01-18T22:01:44.533Z,50.91
2023-01-18T22:04:33.875Z,50.64
2023-01-18T22:07:07.706Z,50.68
2023-01-18T22:09:39.317Z,51.47
2023-01-18T22:12:15.236Z,50.99
2023-01-18T22:14:45.883Z,51.63
2023-01-18T22:17:22.370Z,52.28
2023-01-18T22:19:52.295Z,53.71
2023-01-18T22:22:23.207Z,53.88
2023-01-18T22:24:53.196Z,54.33
2023-01-18T22:27:23.093Z,54.76
2023-01-18T22:29:54.700Z,54.61
2023-01-18T22:32:25.267Z,54.86
2023-01-18T22:34:55.319Z,55.19
2023-01-18T22:37:27.971Z,55.76
2023-01-18T22:39:57.975Z,55.59
2023-01-18T22:42:29.082Z,55.64
2023-01-18T22:45:00.605Z,55.28
2023-01-18T22:47:31.981Z,55.26
2023-01-18T22:50:09.369Z,55.17
2023-01-18T22:52:39.374Z,55.36
2023-01-18T22:55:16.141Z,54.54
2023-01-18T22:57:45.185Z,54.84
2023-01-18T23:00:19.686Z,55.03
2023-01-18T23:02:49.831Z,55.14
2023-01-18T23:05:19.832Z,55.61
2023-01-18T23:07:49.753Z,56.11
2023-01-18T23:10:18.683Z,55.84
2023-01-18T23:12:49.169Z,56.11
2023-01-18T23:15:42.743Z,56.11
2023-01-18T23:18:19.727Z,56.30
2023-01-18T23:20:59.056Z,56.04
2023-01-18T23:23:33.596Z,56.00
2023-01-18T23:26:03.806Z,56.18
2023-01-18T23:28:42.656Z,55.81
2023-01-18T23:31:14.910Z,55.74
2023-01-18T23:33:44.974Z,55.99
2023-01-18T23:36:15.889Z,55.67
2023-01-18T23:39:09.336Z,56.03
2023-01-18T23:41:56.389Z,56.18
2023-01-18T23:44:44.048Z,56.40
2023-01-18T23:47:34.192Z,56.68
2023-01-18T23:50:22.198Z,56.88
2023-01-18T23:53:09.333Z,56.98
2023-01-18T23:55:44.541Z,56.89
2023-01-18T23:58:14.547Z,55.97
